sensor_id;sensor_type;location;lat;lon;timestamp;temperature;humidity
5792;DHT22;2922;53.482;10.006;2022-07-17T00:00:45;13.40;99.90
5792;DHT22;2922;53.482;10.006;2022-07-17T00:03:12;13.40;99.90
5792;DHT22;2922;53.482;10.006;2022-07-17T00:05:38;13.40;99.90
5792;DHT22;2922;53.482;10.006;2022-07-17T00:08:08;13.40;99.90
5792;DHT22;2922;53.482;10.006;2022-07-17T00:10:36;13.40;99.90
5792;DHT22;2922;53.482;10.006;2022-07-17T00:13:02;13.40;99.90
5792;DHT22;2922;53.482;10.006;2022-07-17T00:15:28;13.30;99.90
5792;DHT22;2922;53.482;10.006;2022-07-17T00:17:54;13.30;99.90
5792;DHT22;2922;53.482;10.006;2022-07-17T00:20:19;13.30;99.90
5792;DHT22;2922;53.482;10.006;2022-07-17T00:22:45;13.30;99.90
5792;DHT22;2922;53.482;10.006;2022-07-17T00:25:13;13.30;99.90
5792;DHT22;2922;53.482;10.006;2022-07-17T00:27:39;13.30;99.90
5792;DHT22;2922;53.482;10.006;2022-07-17T00:30:05;13.20;99.90
5792;DHT22;2922;53.482;10.006;2022-07-17T00:32:32;13.20;99.90
5792;DHT22;2922;53.482;10.006;2022-07-17T00:34:57;13.20;99.90
5792;DHT22;2922;53.482;10.006;2022-07-17T00:37:23;13.20;99.90
5792;DHT22;2922;53.482;10.006;2022-07-17T00:39:49;13.20;99.90
5792;DHT22;2922;53.482;10.006;2022-07-17T00:42:16;13.20;99.90
5792;DHT22;2922;53.482;10.006;2022-07-17T00:44:42;13.20;99.90
5792;DHT22;2922;53.482;10.006;2022-07-17T00:47:15;13.20;99.90
5792;DHT22;2922;53.482;10.006;2022-07-17T00:49:41;13.10;99.90
5792;DHT22;2922;53.482;10.006;2022-07-17T00:52:08;13.10;99.90
5792;DHT22;2922;53.482;10.006;2022-07-17T00:54:36;13.10;99.90
5792;DHT22;2922;53.482;10.006;2022-07-17T00:57:06;13.10;99.90
5792;DHT22;2922;53.482;10.006;2022-07-17T00:59:32;13.10;99.90
5792;DHT22;2922;53.482;10.006;2022-07-17T01:02:02;13.10;99.90
5792;DHT22;2922;53.482;10.006;2022-07-17T01:04:27;13.10;99.90
5792;DHT22;2922;53.482;10.006;2022-07-17T01:06:53;13.00;99.90
5792;DHT22;2922;53.482;10.006;2022-07-17T01:09:19;13.10;99.90
5792;DHT22;2922;53.482;10.006;2022-07-17T01:11:45;13.00;99.90
5792;DHT22;2922;53.482;10.006;2022-07-17T01:14:12;13.00;99.90
5792;DHT22;2922;53.482;10.006;2022-07-17T01:16:37;13.00;99.90
5792;DHT22;2922;53.482;10.006;2022-07-17T01:19:03;13.00;99.90
5792;DHT22;2922;53.482;10.006;2022-07-17T01:21:43;13.00;99.90
5792;DHT22;2922;53.482;10.006;2022-07-17T01:24:10;13.00;99.90
5792;DHT22;2922;53.482;10.006;2022-07-17T01:26:36;12.90;99.90
5792;DHT22;2922;53.482;10.006;2022-07-17T01:29:02;12.90;99.90
5792;DHT22;2922;53.482;10.006;2022-07-17T01:31:28;12.90;99.90
5792;DHT22;2922;53.482;10.006;2022-07-17T01:33:53;12.90;99.90
5792;DHT22;2922;53.482;10.006;2022-07-17T01:36:23;12.80;99.90
5792;DHT22;2922;53.482;10.006;2022-07-17T01:38:50;12.80;99.90
5792;DHT22;2922;53.482;10.006;2022-07-17T01:41:15;12.80;99.90
5792;DHT22;2922;53.482;10.006;2022-07-17T01:43:41;12.70;99.90
5792;DHT22;2922;53.482;10.006;2022-07-17T01:46:07;12.70;99.90
5792;DHT22;2922;53.482;10.006;2022-07-17T01:48:33;12.70;99.90
5792;DHT22;2922;53.482;10.006;2022-07-17T01:50:58;12.70;99.90
5792;DHT22;2922;53.482;10.006;2022-07-17T01:53:24;12.70;99.90
5792;DHT22;2922;53.482;10.006;2022-07-17T01:55:50;12.60;99.90
5792;DHT22;2922;53.482;10.006;2022-07-17T01:58:16;12.60;99.90
5792;DHT22;2922;53.482;10.006;2022-07-17T02:00:42;12.60;99.90
5792;DHT22;2922;53.482;10.006;2022-07-17T02:03:07;12.60;99.90
5792;DHT22;2922;53.482;10.006;2022-07-17T02:05:33;12.60;99.90
5792;DHT22;2922;53.482;10.006;2022-07-17T02:07:59;12.60;99.90
5792;DHT22;2922;53.482;10.006;2022-07-17T02:10:25;12.60;99.90
5792;DHT22;2922;53.482;10.006;2022-07-17T02:12:51;12.60;99.90
5792;DHT22;2922;53.482;10.006;2022-07-17T02:15:17;12.60;99.90
5792;DHT22;2922;53.482;10.006;2022-07-17T02:17:42;12.60;99.90
5792;DHT22;2922;53.482;10.006;2022-07-17T02:20:09;12.60;99.90
5792;DHT22;2922;53.482;10.006;2022-07-17T02:22:36;12.70;99.90
5792;DHT22;2922;53.482;10.006;2022-07-17T02:25:02;12.70;99.90
5792;DHT22;2922;53.482;10.006;2022-07-17T02:27:27;12.80;99.90
5792;DHT22;2922;53.482;10.006;2022-07-17T02:29:53;12.70;99.90
5792;DHT22;2922;53.482;10.006;2022-07-17T02:32:19;12.80;99.90
5792;DHT22;2922;53.482;10.006;2022-07-17T02:34:44;12.80;99.90
5792;DHT22;2922;53.482;10.006;2022-07-17T02:37:10;12.80;99.90
5792;DHT22;2922;53.482;10.006;2022-07-17T02:39:36;12.80;99.90
5792;DHT22;2922;53.482;10.006;2022-07-17T02:42:01;12.90;99.90
5792;DHT22;2922;53.482;10.006;2022-07-17T02:44:27;12.80;99.90
5792;DHT22;2922;53.482;10.006;2022-07-17T02:46:52;12.90;99.90
5792;DHT22;2922;53.482;10.006;2022-07-17T02:49:18;13.00;99.90
5792;DHT22;2922;53.482;10.006;2022-07-17T02:51:44;12.90;99.90
5792;DHT22;2922;53.482;10.006;2022-07-17T02:54:09;13.00;99.90
5792;DHT22;2922;53.482;10.006;2022-07-17T02:56:35;13.00;99.90
5792;DHT22;2922;53.482;10.006;2022-07-17T02:59:00;13.00;99.90
5792;DHT22;2922;53.482;10.006;2022-07-17T03:01:26;13.00;99.90
5792;DHT22;2922;53.482;10.006;2022-07-17T03:03:51;13.00;99.90
5792;DHT22;2922;53.482;10.006;2022-07-17T03:06:17;13.00;99.90
5792;DHT22;2922;53.482;10.006;2022-07-17T03:08:42;13.10;99.90
5792;DHT22;2922;53.482;10.006;2022-07-17T03:11:08;13.10;99.90
5792;DHT22;2922;53.482;10.006;2022-07-17T03:13:34;13.10;99.90
5792;DHT22;2922;53.482;10.006;2022-07-17T03:15:59;13.10;99.90
5792;DHT22;2922;53.482;10.006;2022-07-17T03:18:25;13.20;99.90
5792;DHT22;2922;53.482;10.006;2022-07-17T03:20:50;13.20;99.90
5792;DHT22;2922;53.482;10.006;2022-07-17T03:23:16;13.10;99.90
5792;DHT22;2922;53.482;10.006;2022-07-17T03:25:41;13.20;99.90
5792;DHT22;2922;53.482;10.006;2022-07-17T03:28:07;13.20;99.90
5792;DHT22;2922;53.482;10.006;2022-07-17T03:30:33;13.20;99.90
5792;DHT22;2922;53.482;10.006;2022-07-17T03:32:58;13.20;99.90
5792;DHT22;2922;53.482;10.006;2022-07-17T03:35:24;13.20;99.90
5792;DHT22;2922;53.482;10.006;2022-07-17T03:37:49;13.20;99.90
5792;DHT22;2922;53.482;10.006;2022-07-17T03:40:15;13.20;99.90
5792;DHT22;2922;53.482;10.006;2022-07-17T03:42:40;13.20;99.90
5792;DHT22;2922;53.482;10.006;2022-07-17T03:45:06;13.20;99.90
5792;DHT22;2922;53.482;10.006;2022-07-17T03:47:33;13.30;99.90
5792;DHT22;2922;53.482;10.006;2022-07-17T03:49:58;13.30;99.90
5792;DHT22;2922;53.482;10.006;2022-07-17T03:52:24;13.30;99.90
5792;DHT22;2922;53.482;10.006;2022-07-17T03:54:50;13.30;99.90
5792;DHT22;2922;53.482;10.006;2022-07-17T03:57:15;13.40;99.90
5792;DHT22;2922;53.482;10.006;2022-07-17T03:59:41;13.40;99.90
5792;DHT22;2922;53.482;10.006;2022-07-17T04:02:06;13.40;99.90
5792;DHT22;2922;53.482;10.006;2022-07-17T04:04:32;13.40;99.90
5792;DHT22;2922;53.482;10.006;2022-07-17T04:06:57;13.40;99.90
5792;DHT22;2922;53.482;10.006;2022-07-17T04:09:23;13.40;99.90
5792;DHT22;2922;53.482;10.006;2022-07-17T04:11:49;13.50;99.90
5792;DHT22;2922;53.482;10.006;2022-07-17T04:14:14;13.40;99.90
5792;DHT22;2922;53.482;10.006;2022-07-17T04:16:40;13.50;99.90
5792;DHT22;2922;53.482;10.006;2022-07-17T04:19:05;13.50;99.90
5792;DHT22;2922;53.482;10.006;2022-07-17T04:21:31;13.50;99.90
5792;DHT22;2922;53.482;10.006;2022-07-17T04:23:57;13.50;99.90
5792;DHT22;2922;53.482;10.006;2022-07-17T04:26:22;13.50;99.90
5792;DHT22;2922;53.482;10.006;2022-07-17T04:28:48;13.50;99.90
5792;DHT22;2922;53.482;10.006;2022-07-17T04:31:13;13.50;99.90
5792;DHT22;2922;53.482;10.006;2022-07-17T04:33:39;13.60;99.90
5792;DHT22;2922;53.482;10.006;2022-07-17T04:36:04;13.60;99.90
5792;DHT22;2922;53.482;10.006;2022-07-17T04:38:30;13.60;99.90
5792;DHT22;2922;53.482;10.006;2022-07-17T04:40:56;13.60;99.90
5792;DHT22;2922;53.482;10.006;2022-07-17T04:43:22;13.70;99.90
5792;DHT22;2922;53.482;10.006;2022-07-17T04:45:48;13.70;99.90
5792;DHT22;2922;53.482;10.006;2022-07-17T04:48:13;13.70;99.90
5792;DHT22;2922;53.482;10.006;2022-07-17T04:50:39;13.70;99.90
5792;DHT22;2922;53.482;10.006;2022-07-17T04:53:04;13.80;99.90
5792;DHT22;2922;53.482;10.006;2022-07-17T04:55:30;13.80;99.90
5792;DHT22;2922;53.482;10.006;2022-07-17T04:57:56;13.90;99.90
5792;DHT22;2922;53.482;10.006;2022-07-17T05:00:21;13.90;99.90
5792;DHT22;2922;53.482;10.006;2022-07-17T05:02:47;14.00;99.90
5792;DHT22;2922;53.482;10.006;2022-07-17T05:05:14;14.10;99.90
5792;DHT22;2922;53.482;10.006;2022-07-17T05:07:39;14.10;99.90
5792;DHT22;2922;53.482;10.006;2022-07-17T05:10:06;14.20;99.90
5792;DHT22;2922;53.482;10.006;2022-07-17T05:12:34;14.20;99.90
5792;DHT22;2922;53.482;10.006;2022-07-17T05:15:00;14.30;99.90
5792;DHT22;2922;53.482;10.006;2022-07-17T05:17:26;14.40;99.90
5792;DHT22;2922;53.482;10.006;2022-07-17T05:19:51;14.40;99.90
5792;DHT22;2922;53.482;10.006;2022-07-17T05:22:17;14.40;99.90
5792;DHT22;2922;53.482;10.006;2022-07-17T05:24:43;14.50;99.90
5792;DHT22;2922;53.482;10.006;2022-07-17T05:27:08;14.50;99.90
5792;DHT22;2922;53.482;10.006;2022-07-17T05:29:34;14.60;99.90
5792;DHT22;2922;53.482;10.006;2022-07-17T05:32:00;14.70;99.90
5792;DHT22;2922;53.482;10.006;2022-07-17T05:34:25;14.70;99.90
5792;DHT22;2922;53.482;10.006;2022-07-17T05:36:51;14.80;99.90
5792;DHT22;2922;53.482;10.006;2022-07-17T05:39:16;14.80;99.90
5792;DHT22;2922;53.482;10.006;2022-07-17T05:41:42;14.80;99.90
5792;DHT22;2922;53.482;10.006;2022-07-17T05:44:07;14.90;99.90
5792;DHT22;2922;53.482;10.006;2022-07-17T05:46:33;14.90;99.90
5792;DHT22;2922;53.482;10.006;2022-07-17T05:48:59;14.90;99.90
5792;DHT22;2922;53.482;10.006;2022-07-17T05:51:25;14.90;99.90
5792;DHT22;2922;53.482;10.006;2022-07-17T05:53:50;14.90;99.90
5792;DHT22;2922;53.482;10.006;2022-07-17T05:56:16;14.90;99.90
5792;DHT22;2922;53.482;10.006;2022-07-17T05:58:41;15.00;99.90
5792;DHT22;2922;53.482;10.006;2022-07-17T06:01:07;15.00;99.90
5792;DHT22;2922;53.482;10.006;2022-07-17T06:03:35;15.10;99.90
5792;DHT22;2922;53.482;10.006;2022-07-17T06:06:00;15.20;99.90
5792;DHT22;2922;53.482;10.006;2022-07-17T06:08:26;15.30;99.90
5792;DHT22;2922;53.482;10.006;2022-07-17T06:10:51;15.40;99.90
5792;DHT22;2922;53.482;10.006;2022-07-17T06:13:17;15.60;99.90
5792;DHT22;2922;53.482;10.006;2022-07-17T06:15:42;15.80;99.90
5792;DHT22;2922;53.482;10.006;2022-07-17T06:18:08;15.90;99.90
5792;DHT22;2922;53.482;10.006;2022-07-17T06:20:34;15.90;99.90
5792;DHT22;2922;53.482;10.006;2022-07-17T06:22:59;15.90;99.90
5792;DHT22;2922;53.482;10.006;2022-07-17T06:25:25;16.00;99.90
5792;DHT22;2922;53.482;10.006;2022-07-17T06:27:51;15.90;99.90
5792;DHT22;2922;53.482;10.006;2022-07-17T06:30:17;16.00;99.90
5792;DHT22;2922;53.482;10.006;2022-07-17T06:32:43;16.00;99.90
5792;DHT22;2922;53.482;10.006;2022-07-17T06:35:09;16.00;99.90
5792;DHT22;2922;53.482;10.006;2022-07-17T06:37:35;16.00;99.90
5792;DHT22;2922;53.482;10.006;2022-07-17T06:40:02;16.00;99.90
5792;DHT22;2922;53.482;10.006;2022-07-17T06:42:28;16.00;99.90
5792;DHT22;2922;53.482;10.006;2022-07-17T06:44:54;16.00;99.90
5792;DHT22;2922;53.482;10.006;2022-07-17T06:47:19;15.90;99.90
5792;DHT22;2922;53.482;10.006;2022-07-17T06:49:45;15.90;99.90
5792;DHT22;2922;53.482;10.006;2022-07-17T06:52:11;16.00;99.90
5792;DHT22;2922;53.482;10.006;2022-07-17T06:54:36;16.10;99.90
5792;DHT22;2922;53.482;10.006;2022-07-17T06:57:02;16.10;99.90
5792;DHT22;2922;53.482;10.006;2022-07-17T06:59:28;16.10;99.90
5792;DHT22;2922;53.482;10.006;2022-07-17T07:01:53;16.10;99.90
5792;DHT22;2922;53.482;10.006;2022-07-17T07:04:19;16.20;99.90
5792;DHT22;2922;53.482;10.006;2022-07-17T07:06:45;16.10;99.90
5792;DHT22;2922;53.482;10.006;2022-07-17T07:09:10;16.10;99.90
5792;DHT22;2922;53.482;10.006;2022-07-17T07:11:37;16.10;99.90
5792;DHT22;2922;53.482;10.006;2022-07-17T07:14:03;16.30;99.90
5792;DHT22;2922;53.482;10.006;2022-07-17T07:16:29;16.30;99.90
5792;DHT22;2922;53.482;10.006;2022-07-17T07:18:54;16.40;99.90
5792;DHT22;2922;53.482;10.006;2022-07-17T07:21:20;16.50;99.90
5792;DHT22;2922;53.482;10.006;2022-07-17T07:23:46;16.60;99.90
5792;DHT22;2922;53.482;10.006;2022-07-17T07:26:11;16.80;99.90
5792;DHT22;2922;53.482;10.006;2022-07-17T07:28:37;16.90;99.90
5792;DHT22;2922;53.482;10.006;2022-07-17T07:31:03;17.10;99.90
5792;DHT22;2922;53.482;10.006;2022-07-17T07:33:29;17.30;99.90
5792;DHT22;2922;53.482;10.006;2022-07-17T07:35:54;17.40;99.90
5792;DHT22;2922;53.482;10.006;2022-07-17T07:38:20;17.50;99.90
5792;DHT22;2922;53.482;10.006;2022-07-17T07:40:46;17.50;99.90
5792;DHT22;2922;53.482;10.006;2022-07-17T07:43:11;17.70;99.90
5792;DHT22;2922;53.482;10.006;2022-07-17T07:45:37;18.00;99.90
5792;DHT22;2922;53.482;10.006;2022-07-17T07:48:03;18.00;99.90
5792;DHT22;2922;53.482;10.006;2022-07-17T07:50:28;18.00;99.90
5792;DHT22;2922;53.482;10.006;2022-07-17T07:52:54;18.00;99.90
5792;DHT22;2922;53.482;10.006;2022-07-17T07:55:20;18.30;99.90
5792;DHT22;2922;53.482;10.006;2022-07-17T07:57:47;18.30;99.90
5792;DHT22;2922;53.482;10.006;2022-07-17T08:00:13;18.10;99.90
5792;DHT22;2922;53.482;10.006;2022-07-17T08:02:39;18.20;99.90
5792;DHT22;2922;53.482;10.006;2022-07-17T08:05:05;18.10;99.90
5792;DHT22;2922;53.482;10.006;2022-07-17T08:07:31;18.10;99.90
5792;DHT22;2922;53.482;10.006;2022-07-17T08:09:57;18.20;99.90
5792;DHT22;2922;53.482;10.006;2022-07-17T08:12:23;18.20;99.90
5792;DHT22;2922;53.482;10.006;2022-07-17T08:14:50;18.10;99.90
5792;DHT22;2922;53.482;10.006;2022-07-17T08:17:16;18.30;99.90
5792;DHT22;2922;53.482;10.006;2022-07-17T08:19:41;18.50;99.90
5792;DHT22;2922;53.482;10.006;2022-07-17T08:22:07;18.50;99.90
5792;DHT22;2922;53.482;10.006;2022-07-17T08:24:32;18.30;99.90
5792;DHT22;2922;53.482;10.006;2022-07-17T08:26:58;18.60;99.90
5792;DHT22;2922;53.482;10.006;2022-07-17T08:29:24;18.90;99.90
5792;DHT22;2922;53.482;10.006;2022-07-17T08:31:49;19.20;99.90
5792;DHT22;2922;53.482;10.006;2022-07-17T08:34:15;19.20;99.90
5792;DHT22;2922;53.482;10.006;2022-07-17T08:36:41;18.80;99.90
5792;DHT22;2922;53.482;10.006;2022-07-17T08:39:07;18.60;99.90
5792;DHT22;2922;53.482;10.006;2022-07-17T08:41:36;18.50;99.90
5792;DHT22;2922;53.482;10.006;2022-07-17T08:44:06;18.50;99.90
5792;DHT22;2922;53.482;10.006;2022-07-17T08:46:35;18.60;99.90
5792;DHT22;2922;53.482;10.006;2022-07-17T08:49:02;18.60;99.90
5792;DHT22;2922;53.482;10.006;2022-07-17T08:51:28;18.70;99.90
5792;DHT22;2922;53.482;10.006;2022-07-17T08:53:54;19.00;99.90
5792;DHT22;2922;53.482;10.006;2022-07-17T08:56:20;19.20;99.90
5792;DHT22;2922;53.482;10.006;2022-07-17T08:58:46;19.60;99.90
5792;DHT22;2922;53.482;10.006;2022-07-17T09:01:13;19.70;99.90
5792;DHT22;2922;53.482;10.006;2022-07-17T09:03:39;19.90;99.90
5792;DHT22;2922;53.482;10.006;2022-07-17T09:06:17;20.10;99.90
5792;DHT22;2922;53.482;10.006;2022-07-17T09:08:43;19.90;99.90
5792;DHT22;2922;53.482;10.006;2022-07-17T09:11:08;19.70;99.90
5792;DHT22;2922;53.482;10.006;2022-07-17T09:13:34;19.90;99.90
5792;DHT22;2922;53.482;10.006;2022-07-17T09:16:09;20.10;99.90
5792;DHT22;2922;53.482;10.006;2022-07-17T09:18:44;20.30;99.90
5792;DHT22;2922;53.482;10.006;2022-07-17T09:21:19;20.00;99.90
5792;DHT22;2922;53.482;10.006;2022-07-17T09:23:45;20.10;99.90
5792;DHT22;2922;53.482;10.006;2022-07-17T09:26:11;20.40;99.90
5792;DHT22;2922;53.482;10.006;2022-07-17T09:28:46;20.60;99.90
5792;DHT22;2922;53.482;10.006;2022-07-17T09:31:12;20.40;99.90
5792;DHT22;2922;53.482;10.006;2022-07-17T09:33:40;20.50;99.90
5792;DHT22;2922;53.482;10.006;2022-07-17T09:36:08;20.40;99.90
5792;DHT22;2922;53.482;10.006;2022-07-17T09:38:37;20.90;99.90
5792;DHT22;2922;53.482;10.006;2022-07-17T09:43:58;21.10;99.90
5792;DHT22;2922;53.482;10.006;2022-07-17T09:46:26;20.60;99.90
5792;DHT22;2922;53.482;10.006;2022-07-17T09:48:57;20.70;99.90
5792;DHT22;2922;53.482;10.006;2022-07-17T09:51:25;21.10;99.90
5792;DHT22;2922;53.482;10.006;2022-07-17T09:53:54;21.60;99.90
5792;DHT22;2922;53.482;10.006;2022-07-17T09:56:22;21.70;99.90
5792;DHT22;2922;53.482;10.006;2022-07-17T09:58:53;21.60;99.90
5792;DHT22;2922;53.482;10.006;2022-07-17T10:01:20;21.10;99.90
5792;DHT22;2922;53.482;10.006;2022-07-17T10:03:46;21.30;99.90
5792;DHT22;2922;53.482;10.006;2022-07-17T10:06:14;21.20;99.90
5792;DHT22;2922;53.482;10.006;2022-07-17T10:08:40;21.40;99.90
5792;DHT22;2922;53.482;10.006;2022-07-17T10:11:09;21.60;99.90
5792;DHT22;2922;53.482;10.006;2022-07-17T10:13:40;21.70;99.90
5792;DHT22;2922;53.482;10.006;2022-07-17T10:16:09;21.80;99.90
5792;DHT22;2922;53.482;10.006;2022-07-17T10:18:40;22.20;99.90
5792;DHT22;2922;53.482;10.006;2022-07-17T10:21:10;22.30;99.90
5792;DHT22;2922;53.482;10.006;2022-07-17T10:23:36;22.00;93.20
5792;DHT22;2922;53.482;10.006;2022-07-17T10:26:02;22.10;96.10
5792;DHT22;2922;53.482;10.006;2022-07-17T10:28:45;22.20;99.90
5792;DHT22;2922;53.482;10.006;2022-07-17T10:31:27;22.20;99.90
5792;DHT22;2922;53.482;10.006;2022-07-17T10:34:04;22.10;99.90
5792;DHT22;2922;53.482;10.006;2022-07-17T10:36:41;22.00;98.80
5792;DHT22;2922;53.482;10.006;2022-07-17T10:39:17;21.90;97.20
5792;DHT22;2922;53.482;10.006;2022-07-17T10:41:56;21.90;92.70
5792;DHT22;2922;53.482;10.006;2022-07-17T10:44:26;21.90;89.10
5792;DHT22;2922;53.482;10.006;2022-07-17T10:46:53;22.20;90.00
5792;DHT22;2922;53.482;10.006;2022-07-17T10:49:19;22.50;93.10
5792;DHT22;2922;53.482;10.006;2022-07-17T10:51:46;22.80;90.80
5792;DHT22;2922;53.482;10.006;2022-07-17T10:54:12;23.20;86.90
5792;DHT22;2922;53.482;10.006;2022-07-17T10:56:39;23.20;89.00
5792;DHT22;2922;53.482;10.006;2022-07-17T10:59:10;23.10;81.30
5792;DHT22;2922;53.482;10.006;2022-07-17T11:01:39;23.20;82.30
5792;DHT22;2922;53.482;10.006;2022-07-17T11:04:05;23.20;86.80
5792;DHT22;2922;53.482;10.006;2022-07-17T11:08:59;23.40;82.20
5792;DHT22;2922;53.482;10.006;2022-07-17T11:11:48;23.00;81.10
5792;DHT22;2922;53.482;10.006;2022-07-17T11:14:16;23.00;77.70
5792;DHT22;2922;53.482;10.006;2022-07-17T11:16:58;22.80;72.30
5792;DHT22;2922;53.482;10.006;2022-07-17T11:19:31;23.10;78.30
5792;DHT22;2922;53.482;10.006;2022-07-17T11:22:01;23.40;75.40
5792;DHT22;2922;53.482;10.006;2022-07-17T11:24:40;23.50;76.10
5792;DHT22;2922;53.482;10.006;2022-07-17T11:27:09;23.30;72.50
5792;DHT22;2922;53.482;10.006;2022-07-17T11:29:39;23.30;76.40
5792;DHT22;2922;53.482;10.006;2022-07-17T11:32:05;23.40;77.10
5792;DHT22;2922;53.482;10.006;2022-07-17T11:34:31;23.20;74.40
5792;DHT22;2922;53.482;10.006;2022-07-17T11:37:06;23.60;77.40
5792;DHT22;2922;53.482;10.006;2022-07-17T11:39:57;23.80;72.20
5792;DHT22;2922;53.482;10.006;2022-07-17T11:42:24;24.30;72.50
5792;DHT22;2922;53.482;10.006;2022-07-17T11:44:52;24.20;68.70
5792;DHT22;2922;53.482;10.006;2022-07-17T11:47:26;23.80;66.50
5792;DHT22;2922;53.482;10.006;2022-07-17T11:50:11;24.10;70.70
5792;DHT22;2922;53.482;10.006;2022-07-17T11:52:48;24.50;70.00
5792;DHT22;2922;53.482;10.006;2022-07-17T11:55:14;24.50;67.10
5792;DHT22;2922;53.482;10.006;2022-07-17T11:57:45;24.00;66.00
5792;DHT22;2922;53.482;10.006;2022-07-17T12:00:13;24.20;69.60
5792;DHT22;2922;53.482;10.006;2022-07-17T12:02:39;24.20;68.90
5792;DHT22;2922;53.482;10.006;2022-07-17T12:05:04;24.20;67.90
5792;DHT22;2922;53.482;10.006;2022-07-17T12:07:45;24.00;65.90
5792;DHT22;2922;53.482;10.006;2022-07-17T12:10:19;23.90;66.90
5792;DHT22;2922;53.482;10.006;2022-07-17T12:15:33;23.70;64.20
5792;DHT22;2922;53.482;10.006;2022-07-17T12:18:00;23.50;64.20
5792;DHT22;2922;53.482;10.006;2022-07-17T12:20:26;23.50;65.30
5792;DHT22;2922;53.482;10.006;2022-07-17T12:23:04;23.60;69.10
5792;DHT22;2922;53.482;10.006;2022-07-17T12:25:30;23.90;69.90
5792;DHT22;2922;53.482;10.006;2022-07-17T12:27:56;24.30;68.00
5792;DHT22;2922;53.482;10.006;2022-07-17T12:30:21;24.30;66.60
5792;DHT22;2922;53.482;10.006;2022-07-17T12:32:47;24.00;63.80
5792;DHT22;2922;53.482;10.006;2022-07-17T12:35:14;24.10;63.60
5792;DHT22;2922;53.482;10.006;2022-07-17T12:37:40;24.10;64.80
5792;DHT22;2922;53.482;10.006;2022-07-17T12:40:07;24.40;66.90
5792;DHT22;2922;53.482;10.006;2022-07-17T12:42:32;24.50;67.70
5792;DHT22;2922;53.482;10.006;2022-07-17T12:44:58;24.70;66.00
5792;DHT22;2922;53.482;10.006;2022-07-17T12:47:24;24.90;66.20
5792;DHT22;2922;53.482;10.006;2022-07-17T12:49:49;24.90;64.40
5792;DHT22;2922;53.482;10.006;2022-07-17T12:52:15;25.10;62.90
5792;DHT22;2922;53.482;10.006;2022-07-17T12:54:40;25.00;63.20
5792;DHT22;2922;53.482;10.006;2022-07-17T12:57:06;25.10;61.90
5792;DHT22;2922;53.482;10.006;2022-07-17T12:59:33;24.90;62.50
5792;DHT22;2922;53.482;10.006;2022-07-17T13:01:58;25.30;64.40
5792;DHT22;2922;53.482;10.006;2022-07-17T13:04:24;25.20;62.30
5792;DHT22;2922;53.482;10.006;2022-07-17T13:06:50;25.30;63.40
5792;DHT22;2922;53.482;10.006;2022-07-17T13:09:16;25.00;63.60
5792;DHT22;2922;53.482;10.006;2022-07-17T13:11:42;24.80;62.40
5792;DHT22;2922;53.482;10.006;2022-07-17T13:14:09;24.80;65.80
5792;DHT22;2922;53.482;10.006;2022-07-17T13:16:38;24.70;62.80
5792;DHT22;2922;53.482;10.006;2022-07-17T13:19:04;24.90;62.40
5792;DHT22;2922;53.482;10.006;2022-07-17T13:21:31;25.00;64.50
5792;DHT22;2922;53.482;10.006;2022-07-17T13:23:56;25.00;63.10
5792;DHT22;2922;53.482;10.006;2022-07-17T13:26:22;25.00;63.20
5792;DHT22;2922;53.482;10.006;2022-07-17T13:28:48;24.90;62.40
5792;DHT22;2922;53.482;10.006;2022-07-17T13:31:14;24.50;58.60
5792;DHT22;2922;53.482;10.006;2022-07-17T13:33:39;24.50;58.90
5792;DHT22;2922;53.482;10.006;2022-07-17T13:36:05;24.70;60.70
5792;DHT22;2922;53.482;10.006;2022-07-17T13:38:31;24.70;60.70
5792;DHT22;2922;53.482;10.006;2022-07-17T13:40:56;24.40;63.00
5792;DHT22;2922;53.482;10.006;2022-07-17T13:43:22;24.80;64.40
5792;DHT22;2922;53.482;10.006;2022-07-17T13:45:48;24.80;62.00
5792;DHT22;2922;53.482;10.006;2022-07-17T13:48:13;24.90;63.10
5792;DHT22;2922;53.482;10.006;2022-07-17T13:50:41;25.00;61.90
5792;DHT22;2922;53.482;10.006;2022-07-17T13:53:07;25.00;62.20
5792;DHT22;2922;53.482;10.006;2022-07-17T13:55:32;24.90;63.30
5792;DHT22;2922;53.482;10.006;2022-07-17T13:57:58;25.00;63.90
5792;DHT22;2922;53.482;10.006;2022-07-17T14:00:24;25.10;64.60
5792;DHT22;2922;53.482;10.006;2022-07-17T14:02:50;25.30;65.70
5792;DHT22;2922;53.482;10.006;2022-07-17T14:05:16;25.40;65.10
5792;DHT22;2922;53.482;10.006;2022-07-17T14:07:42;25.30;61.60
5792;DHT22;2922;53.482;10.006;2022-07-17T14:10:08;24.90;61.80
5792;DHT22;2922;53.482;10.006;2022-07-17T14:12:35;24.80;64.50
5792;DHT22;2922;53.482;10.006;2022-07-17T14:15:02;25.00;64.80
5792;DHT22;2922;53.482;10.006;2022-07-17T14:17:28;25.10;65.60
5792;DHT22;2922;53.482;10.006;2022-07-17T14:19:53;25.10;64.80
5792;DHT22;2922;53.482;10.006;2022-07-17T14:22:19;25.00;66.00
5792;DHT22;2922;53.482;10.006;2022-07-17T14:24:44;24.70;64.80
5792;DHT22;2922;53.482;10.006;2022-07-17T14:27:10;24.80;64.90
5792;DHT22;2922;53.482;10.006;2022-07-17T14:29:36;25.00;65.10
5792;DHT22;2922;53.482;10.006;2022-07-17T14:32:01;24.60;64.20
5792;DHT22;2922;53.482;10.006;2022-07-17T14:34:27;24.80;66.40
5792;DHT22;2922;53.482;10.006;2022-07-17T14:36:53;25.20;64.50
5792;DHT22;2922;53.482;10.006;2022-07-17T14:39:18;24.80;62.20
5792;DHT22;2922;53.482;10.006;2022-07-17T14:41:44;24.50;62.90
5792;DHT22;2922;53.482;10.006;2022-07-17T14:44:10;24.40;65.10
5792;DHT22;2922;53.482;10.006;2022-07-17T14:46:36;24.30;65.30
5792;DHT22;2922;53.482;10.006;2022-07-17T14:49:02;24.40;67.10
5792;DHT22;2922;53.482;10.006;2022-07-17T14:51:27;24.50;67.20
5792;DHT22;2922;53.482;10.006;2022-07-17T14:53:53;24.80;68.30
5792;DHT22;2922;53.482;10.006;2022-07-17T14:56:19;24.80;67.60
5792;DHT22;2922;53.482;10.006;2022-07-17T14:58:44;24.90;67.20
5792;DHT22;2922;53.482;10.006;2022-07-17T15:01:10;24.80;67.20
5792;DHT22;2922;53.482;10.006;2022-07-17T15:03:36;24.60;67.00
5792;DHT22;2922;53.482;10.006;2022-07-17T15:06:01;24.60;66.50
5792;DHT22;2922;53.482;10.006;2022-07-17T15:08:27;24.60;65.10
5792;DHT22;2922;53.482;10.006;2022-07-17T15:10:53;24.50;67.40
5792;DHT22;2922;53.482;10.006;2022-07-17T15:13:18;24.50;66.80
5792;DHT22;2922;53.482;10.006;2022-07-17T15:15:44;24.40;66.90
5792;DHT22;2922;53.482;10.006;2022-07-17T15:18:10;24.50;68.30
5792;DHT22;2922;53.482;10.006;2022-07-17T15:20:35;24.70;70.10
5792;DHT22;2922;53.482;10.006;2022-07-17T15:23:02;24.70;69.00
5792;DHT22;2922;53.482;10.006;2022-07-17T15:25:28;24.50;69.00
5792;DHT22;2922;53.482;10.006;2022-07-17T15:27:53;24.60;69.20
5792;DHT22;2922;53.482;10.006;2022-07-17T15:30:19;24.90;69.90
5792;DHT22;2922;53.482;10.006;2022-07-17T15:32:44;24.80;69.60
5792;DHT22;2922;53.482;10.006;2022-07-17T15:35:10;24.80;68.00
5792;DHT22;2922;53.482;10.006;2022-07-17T15:37:36;24.80;68.60
5792;DHT22;2922;53.482;10.006;2022-07-17T15:40:02;24.50;67.90
5792;DHT22;2922;53.482;10.006;2022-07-17T15:42:28;24.40;69.20
5792;DHT22;2922;53.482;10.006;2022-07-17T15:44:54;24.50;69.70
5792;DHT22;2922;53.482;10.006;2022-07-17T15:47:19;24.40;67.80
5792;DHT22;2922;53.482;10.006;2022-07-17T15:49:45;24.50;68.50